createdAt,value
2022-12-19T00:00:07.000Z,97474
2022-12-19T00:04:52.000Z,97486
2022-12-19T00:10:07.000Z,97481
2022-12-19T00:15:07.000Z,97479
2022-12-19T00:20:07.000Z,97466
2022-12-19T00:25:07.000Z,97462
2022-12-19T00:29:52.000Z,97452
2022-12-19T00:35:07.000Z,97466
2022-12-19T00:40:07.000Z,97452
2022-12-19T00:45:07.000Z,97458
2022-12-19T00:50:07.000Z,97453
2022-12-19T00:55:07.000Z,97459
2022-12-19T01:00:07.000Z,97458
2022-12-19T01:04:52.000Z,97461
2022-12-19T01:10:07.000Z,97449
2022-12-19T01:15:07.000Z,97455
2022-12-19T01:20:07.000Z,97438
2022-12-19T01:25:07.000Z,97441
2022-12-19T01:30:07.000Z,97448
2022-12-19T01:35:07.000Z,97444
2022-12-19T01:40:07.000Z,97448
2022-12-19T01:45:07.000Z,97465
2022-12-19T01:50:07.000Z,97458
2022-12-19T01:54:52.000Z,97439
2022-12-19T01:59:52.000Z,97444
2022-12-19T02:05:07.000Z,97437
2022-12-19T02:10:07.000Z,97437
2022-12-19T02:15:07.000Z,97438
2022-12-19T02:19:52.000Z,97436
2022-12-19T02:25:07.000Z,97445
2022-12-19T02:30:07.000Z,97439
2022-12-19T02:35:07.000Z,97442
2022-12-19T02:40:07.000Z,97444
2022-12-19T02:45:07.000Z,97439
2022-12-19T02:49:52.000Z,97434
2022-12-19T02:54:52.000Z,97442
2022-12-19T03:00:07.000Z,97442
2022-12-19T03:05:07.000Z,97442
2022-12-19T03:10:07.000Z,97435
2022-12-19T03:15:07.000Z,97427
2022-12-19T03:19:52.000Z,97435
2022-12-19T03:24:52.000Z,97427
2022-12-19T03:29:52.000Z,97436
2022-12-19T03:35:07.000Z,97428
2022-12-19T03:40:07.000Z,97430
2022-12-19T03:45:07.000Z,97424
2022-12-19T03:49:52.000Z,97431
2022-12-19T03:55:07.000Z,97422
2022-12-19T04:00:07.000Z,97422
2022-12-19T04:05:07.000Z,97412
2022-12-19T04:10:07.000Z,97410
2022-12-19T04:15:07.000Z,97399
2022-12-19T04:19:52.000Z,97398
2022-12-19T04:24:52.000Z,97418
2022-12-19T04:30:07.000Z,97416
2022-12-19T04:35:07.000Z,97420
2022-12-19T04:40:07.000Z,97412
2022-12-19T04:44:52.000Z,97409
2022-12-19T04:49:52.000Z,97408
2022-12-19T04:55:07.000Z,97408
2022-12-19T04:59:52.000Z,97408
2022-12-19T05:04:52.000Z,97401
2022-12-19T05:10:07.000Z,97410
2022-12-19T05:14:52.000Z,97407
2022-12-19T05:19:52.000Z,97391
2022-12-19T05:24:52.000Z,97405
2022-12-19T05:30:07.000Z,97386
2022-12-19T05:35:07.000Z,97394
2022-12-19T05:40:07.000Z,97397
2022-12-19T05:44:52.000Z,97388
2022-12-19T05:49:52.000Z,97392
2022-12-19T05:54:52.000Z,97390
2022-12-19T05:59:52.000Z,97391
2022-12-19T06:05:07.000Z,97387
2022-12-19T06:10:07.000Z,97412
2022-12-19T06:14:52.000Z,97401
2022-12-19T06:19:52.000Z,97388
2022-12-19T06:24:52.000Z,97394
2022-12-19T06:30:07.000Z,97386
2022-12-19T06:35:07.000Z,97376
2022-12-19T06:40:07.000Z,97390
2022-12-19T06:45:07.000Z,97392
2022-12-19T06:49:52.000Z,97389
2022-12-19T06:54:52.000Z,97387
2022-12-19T06:59:52.000Z,97400
2022-12-19T07:05:07.000Z,97391
2022-12-19T07:10:07.000Z,97376
2022-12-19T07:15:07.000Z,97388
2022-12-19T07:19:52.000Z,97387
2022-12-19T07:24:52.000Z,97374
2022-12-19T07:30:07.000Z,97377
2022-12-19T07:35:07.000Z,97367
2022-12-19T07:40:07.000Z,97383
2022-12-19T07:44:52.000Z,97391
2022-12-19T07:50:07.000Z,97396
2022-12-19T07:54:52.000Z,97411
2022-12-19T07:59:52.000Z,97422
2022-12-19T08:05:07.000Z,97426
2022-12-19T08:09:52.000Z,97431
2022-12-19T08:14:52.000Z,97434
2022-12-19T08:19:52.000Z,97413
2022-12-19T08:24:52.000Z,97420
2022-12-19T08:30:07.000Z,97421
2022-12-19T08:35:07.000Z,97418
2022-12-19T08:39:52.000Z,97424
2022-12-19T08:44:52.000Z,97418
2022-12-19T08:49:52.000Z,97420
2022-12-19T08:54:52.000Z,97430
2022-12-19T08:59:52.000Z,97421
2022-12-19T09:05:07.000Z,97427
2022-12-19T09:09:52.000Z,97423
2022-12-19T09:14:52.000Z,97430
2022-12-19T09:19:52.000Z,97437
2022-12-19T09:24:52.000Z,97426
2022-12-19T09:30:07.000Z,97432
2022-12-19T09:34:52.000Z,97432
2022-12-19T09:39:52.000Z,97422
2022-12-19T09:45:07.000Z,97418
2022-12-19T09:49:52.000Z,97436
2022-12-19T09:55:07.000Z,97441
2022-12-19T10:00:07.000Z,97441
2022-12-19T10:04:52.000Z,97442
2022-12-19T10:09:52.000Z,97432
2022-12-19T10:14:52.000Z,97426
2022-12-19T10:19:52.000Z,97414
2022-12-19T10:25:07.000Z,97418
2022-12-19T10:30:07.000Z,97417
2022-12-19T10:34:52.000Z,97407
2022-12-19T10:39:52.000Z,97408
2022-12-19T10:45:07.000Z,97394
2022-12-19T10:49:52.000Z,97404
2022-12-19T10:55:07.000Z,97400
2022-12-19T11:00:07.000Z,97388
2022-12-19T11:04:52.000Z,97384
2022-12-19T11:09:52.000Z,97379
2022-12-19T11:29:52.000Z,97362
2022-12-19T11:32:37.000Z,97355
2022-12-19T11:34:52.000Z,97356
2022-12-19T11:39:52.000Z,97342
2022-12-19T11:44:52.000Z,97340
2022-12-19T11:49:52.000Z,97331
2022-12-19T11:54:52.000Z,97335
2022-12-19T12:00:07.000Z,97319
2022-12-19T12:04:52.000Z,97321
2022-12-19T12:31:52.000Z,97314
2022-12-19T12:38:37.000Z,97320
2022-12-19T12:39:52.000Z,97306
2022-12-19T12:45:07.000Z,97305
2022-12-19T12:49:52.000Z,97299
2022-12-19T12:54:52.000Z,97303
2022-12-19T13:00:07.000Z,97298
2022-12-19T13:04:52.000Z,97292
2022-12-19T13:09:52.000Z,97292
2022-12-19T13:14:52.000Z,97285
2022-12-19T13:19:52.000Z,97295
2022-12-19T13:25:07.000Z,97285
2022-12-19T13:30:07.000Z,97274
2022-12-19T13:40:22.000Z,97275
2022-12-19T13:44:52.000Z,97275
2022-12-19T13:49:52.000Z,97278
2022-12-19T13:55:07.000Z,97274
2022-12-19T14:00:07.000Z,97288
2022-12-19T14:04:52.000Z,97281
2022-12-19T14:09:52.000Z,97273
2022-12-19T14:14:52.000Z,97293
2022-12-19T14:20:07.000Z,97278
2022-12-19T14:25:07.000Z,97279
2022-12-19T14:29:52.000Z,97286
2022-12-19T14:35:07.000Z,97287
2022-12-19T14:39:52.000Z,97273
2022-12-19T14:44:52.000Z,97273
2022-12-19T14:56:37.000Z,97264
2022-12-19T14:59:52.000Z,97263
2022-12-19T15:04:52.000Z,97266
2022-12-19T15:09:52.000Z,97287
2022-12-19T15:14:52.000Z,97281
2022-12-19T15:19:52.000Z,97295
2022-12-19T15:25:08.000Z,97292
2022-12-19T15:29:52.000Z,97282
2022-12-19T15:34:53.000Z,97290
2022-12-19T15:39:53.000Z,97279
2022-12-19T15:45:08.000Z,97278
2022-12-19T15:49:53.000Z,97282
2022-12-19T15:54:53.000Z,97290
2022-12-19T15:59:53.000Z,97283
2022-12-19T16:04:53.000Z,97279
2022-12-19T16:09:53.000Z,97277
2022-12-19T16:14:53.000Z,97278
2022-12-19T16:20:08.000Z,97273
2022-12-19T16:24:53.000Z,97270
2022-12-19T16:29:53.000Z,97279
2022-12-19T16:35:08.000Z,97283
2022-12-19T16:40:08.000Z,97280
2022-12-19T16:45:08.000Z,97290
2022-12-19T16:49:53.000Z,97291
2022-12-19T16:54:53.000Z,97276
2022-12-19T17:00:08.000Z,97275
2022-12-19T17:04:53.000Z,97272
2022-12-19T17:09:53.000Z,97262
2022-12-19T17:15:00.000Z,97273
2022-12-19T17:20:00.000Z,97281
2022-12-19T17:25:00.000Z,97271
2022-12-19T17:30:00.000Z,97262
2022-12-19T17:35:00.000Z,97265
2022-12-19T17:40:00.000Z,97260
2022-12-19T17:45:00.000Z,97265
2022-12-19T17:50:00.000Z,97260
2022-12-19T17:55:00.000Z,97252
2022-12-19T18:00:00.000Z,97258
2022-12-19T18:05:00.000Z,97261
2022-12-19T18:10:00.000Z,97261
2022-12-19T18:15:00.000Z,97266
2022-12-19T18:20:00.000Z,97252
2022-12-19T18:25:00.000Z,97247
2022-12-19T18:30:00.000Z,97257
2022-12-19T18:35:00.000Z,97263
2022-12-19T18:40:00.000Z,97251
2022-12-19T18:45:00.000Z,97253
2022-12-19T18:50:00.000Z,97252
2022-12-19T18:55:00.000Z,97244
2022-12-19T19:00:00.000Z,97258
2022-12-19T19:05:00.000Z,97245
2022-12-19T19:10:00.000Z,97248
2022-12-19T19:15:00.000Z,97237
2022-12-19T19:20:00.000Z,97238
2022-12-19T19:25:00.000Z,97248
2022-12-19T19:30:00.000Z,97240
2022-12-19T19:35:00.000Z,97245
2022-12-19T19:40:00.000Z,97228
2022-12-19T19:45:00.000Z,97237
2022-12-19T19:50:00.000Z,97228
2022-12-19T19:55:00.000Z,97221
2022-12-19T20:00:00.000Z,97228
2022-12-19T20:05:00.000Z,97220
2022-12-19T20:10:00.000Z,97213
2022-12-19T20:15:00.000Z,97204
2022-12-19T20:20:00.000Z,97212
2022-12-19T20:25:00.000Z,97210
2022-12-19T20:30:00.000Z,97206
2022-12-19T20:35:00.000Z,97195
2022-12-19T20:40:00.000Z,97202
2022-12-19T20:45:00.000Z,97202
2022-12-19T20:50:00.000Z,97198
2022-12-19T20:55:00.000Z,97198
2022-12-19T21:00:00.000Z,97186
2022-12-19T21:05:00.000Z,97185
2022-12-19T21:10:00.000Z,97194
2022-12-19T21:15:00.000Z,97197
2022-12-19T21:20:00.000Z,97200
2022-12-19T21:25:00.000Z,97192
2022-12-19T21:30:00.000Z,97189
2022-12-19T21:35:00.000Z,97191
2022-12-19T21:40:00.000Z,97176
2022-12-19T21:45:00.000Z,97173
2022-12-19T21:50:00.000Z,97164
2022-12-19T21:55:00.000Z,97178
2022-12-19T22:00:00.000Z,97178
2022-12-19T22:05:00.000Z,97181
2022-12-19T22:10:00.000Z,97172
2022-12-19T22:15:02.000Z,97156
2022-12-19T22:20:02.000Z,97158
2022-12-19T22:25:03.000Z,97159
2022-12-19T22:30:01.000Z,97171
2022-12-19T22:35:02.000Z,97172
2022-12-19T22:40:04.000Z,97172
2022-12-19T22:45:04.000Z,97170
2022-12-19T22:50:05.000Z,97177
2022-12-19T22:55:07.000Z,97164
2022-12-19T23:00:04.000Z,97170
2022-12-19T23:05:05.000Z,97173
2022-12-19T23:10:04.000Z,97176
2022-12-19T23:15:01.000Z,97181
2022-12-19T23:20:03.000Z,97184
2022-12-19T23:25:01.000Z,97184
2022-12-19T23:30:03.000Z,97182
2022-12-19T23:35:03.000Z,97154
2022-12-19T23:40:04.000Z,97153
2022-12-19T23:45:00.000Z,97148
2022-12-19T23:50:07.000Z,97159
2022-12-19T23:55:07.000Z,97168
